<?xml version="1.0" encoding="UTF-8" standalone="no" ?><gpx xmlns="http://www.topografix.com/GPX/1/1" xmlns:gpxx="http://www.garmin.com/xmlschemas/GpxExtensions/v3" xmlns:wptx1="http://www.garmin.com/xmlschemas/WaypointExtension/v1" xmlns:gpxtpx="http://www.garmin.com/xmlschemas/TrackPointExtension/v1" creator="GuideVTT.com" version="1.1" xmlns:xsi="http://www.w3.org/2001/XMLSchema-instance" xsi:schemaLocation="http://www.topografix.com/GPX/1/1 http://www.topografix.com/GPX/1/1/gpx.xsd http://www.garmin.com/xmlschemas/GpxExtensions/v3 http://www8.garmin.com/xmlschemas/GpxExtensionsv3.xsd http://www.garmin.com/xmlschemas/WaypointExtension/v1 http://www8.garmin.com/xmlschemas/WaypointExtensionv1.xsd http://www.garmin.com/xmlschemas/TrackPointExtension/v1 http://www.garmin.com/xmlschemas/TrackPointExtensionv1.xsd">
<metadata><link href="http://www.garmin.com"><text>Garmin International</text></link><time>2013-06-22T15:13:50Z</time></metadata>
<trk><name>ne_tn_762.gpx</name><extensions><gpxx:TrackExtension><gpxx:DisplayColor>Cyan</gpxx:DisplayColor></gpxx:TrackExtension></extensions><trkseg>
<trkpt lat="46.87727915" lon="6.75713284"><ele>444.167053</ele><time>2008-04-14T17:22:52Z</time></trkpt>
<trkpt lat="46.87740398" lon="6.75694759"><ele>448.290802</ele><time>2008-04-14T17:22:56Z</time></trkpt>
<trkpt lat="46.87781923" lon="6.75719159"><ele>444.650909</ele><time>2008-04-14T17:23:08Z</time></trkpt>
<trkpt lat="46.87830457" lon="6.75711985"><ele>445.927338</ele><time>2008-04-14T17:23:21Z</time></trkpt>
<trkpt lat="46.87830231" lon="6.75673943"><ele>451.895569</ele><time>2008-04-14T17:23:28Z</time></trkpt>
<trkpt lat="46.87785170" lon="6.75660084"><ele>454.966553</ele><time>2008-04-14T17:23:40Z</time></trkpt>
<trkpt lat="46.87672271" lon="6.75584116"><ele>469.93042</ele><time>2008-04-14T17:24:14Z</time></trkpt>
<trkpt lat="46.87659522" lon="6.75558041"><ele>473.384888</ele><time>2008-04-14T17:24:20Z</time></trkpt>
<trkpt lat="46.87681892" lon="6.75538079"><ele>476.782745</ele><time>2008-04-14T17:24:27Z</time></trkpt>
<trkpt lat="46.87757567" lon="6.75556796"><ele>475.350189</ele><time>2008-04-14T17:24:47Z</time></trkpt>
<trkpt lat="46.87851497" lon="6.75469020"><ele>486.816071</ele><time>2008-04-14T17:25:17Z</time></trkpt>
<trkpt lat="46.87856620" lon="6.75423039"><ele>493.38324</ele><time>2008-04-14T17:25:25Z</time></trkpt>
<trkpt lat="46.87810353" lon="6.75358033"><ele>501.087189</ele><time>2008-04-14T17:25:42Z</time></trkpt>
<trkpt lat="46.87779660" lon="6.75340058"><ele>502.756866</ele><time>2008-04-14T17:25:51Z</time></trkpt>
<trkpt lat="46.87680590" lon="6.75320330"><ele>506.980988</ele><time>2008-04-14T17:26:18Z</time></trkpt>
<trkpt lat="46.87648990" lon="6.75301055"><ele>509.449188</ele><time>2008-04-14T17:26:27Z</time></trkpt>
<trkpt lat="46.87630693" lon="6.75250126"><ele>515.12146</ele><time>2008-04-14T17:26:38Z</time></trkpt>
<trkpt lat="46.87638545" lon="6.75209359"><ele>519.714233</ele><time>2008-04-14T17:26:45Z</time></trkpt>
<trkpt lat="46.87683370" lon="6.75183863"><ele>522.735596</ele><time>2008-04-14T17:26:58Z</time></trkpt>
<trkpt lat="46.87720013" lon="6.75144039"><ele>527.575012</ele><time>2008-04-14T17:27:10Z</time></trkpt>
<trkpt lat="46.87719856" lon="6.75117804"><ele>531.298035</ele><time>2008-04-14T17:27:15Z</time></trkpt>
<trkpt lat="46.87674676" lon="6.75084273"><ele>533.383789</ele><time>2008-04-14T17:27:29Z</time></trkpt>
<trkpt lat="46.87619302" lon="6.75001024"><ele>542.599976</ele><time>2008-04-14T17:27:50Z</time></trkpt>
<trkpt lat="46.87560590" lon="6.74961109"><ele>545.715149</ele><time>2008-04-14T17:28:07Z</time></trkpt>
<trkpt lat="46.87511748" lon="6.74917133"><ele>551.074585</ele><time>2008-04-14T17:28:23Z</time></trkpt>
<trkpt lat="46.87456444" lon="6.74845693"><ele>558.200317</ele><time>2008-04-14T17:28:42Z</time></trkpt>
<trkpt lat="46.87388230" lon="6.74721950"><ele>568.312134</ele><time>2008-04-14T17:29:11Z</time></trkpt>
<trkpt lat="46.87423536" lon="6.74609994"><ele>577.993896</ele><time>2008-04-14T17:29:34Z</time></trkpt>
<trkpt lat="46.87432826" lon="6.74510179"><ele>585.019104</ele><time>2008-04-14T17:29:52Z</time></trkpt>
<trkpt lat="46.87431179" lon="6.74386893"><ele>596.125732</ele><time>2008-04-14T17:30:15Z</time></trkpt>
<trkpt lat="46.87431593" lon="6.74306869"><ele>597.194885</ele><time>2008-04-14T17:30:29Z</time></trkpt>
<trkpt lat="46.87417662" lon="6.74234901"><ele>593.125122</ele><time>2008-04-14T17:30:43Z</time></trkpt>
<trkpt lat="46.87434153" lon="6.74136303"><ele>584.962585</ele><time>2008-04-14T17:31:02Z</time></trkpt>
<trkpt lat="46.87456948" lon="6.74038935"><ele>590.934448</ele><time>2008-04-14T17:31:20Z</time></trkpt>
<trkpt lat="46.87478496" lon="6.74032097"><ele>593.195801</ele><time>2008-04-14T17:31:26Z</time></trkpt>
<trkpt lat="46.87550376" lon="6.74018046"><ele>600.033203</ele><time>2008-04-14T17:31:46Z</time></trkpt>
<trkpt lat="46.87582557" lon="6.73984833"><ele>605.048889</ele><time>2008-04-14T17:31:56Z</time></trkpt>
<trkpt lat="46.87590452" lon="6.73951935"><ele>607.743225</ele><time>2008-04-14T17:32:03Z</time></trkpt>
<trkpt lat="46.87671439" lon="6.73956130"><ele>610.677429</ele><time>2008-04-14T17:32:24Z</time></trkpt>
<trkpt lat="46.87753541" lon="6.73995731"><ele>609.476746</ele><time>2008-04-14T17:32:47Z</time></trkpt>
<trkpt lat="46.87843683" lon="6.74026046"><ele>617.654602</ele><time>2008-04-14T17:33:12Z</time></trkpt>
<trkpt lat="46.87960906" lon="6.74071753"><ele>617.416382</ele><time>2008-04-14T17:33:44Z</time></trkpt>
<trkpt lat="46.88086215" lon="6.74116046"><ele>612.776855</ele><time>2008-04-14T17:34:19Z</time></trkpt>
<trkpt lat="46.88136707" lon="6.74135071"><ele>609.354614</ele><time>2008-04-14T17:34:33Z</time></trkpt>
<trkpt lat="46.88185811" lon="6.74074084"><ele>618.425171</ele><time>2008-04-14T17:34:50Z</time></trkpt>
<trkpt lat="46.88230826" lon="6.74080060"><ele>621.011292</ele><time>2008-04-14T17:35:02Z</time></trkpt>
<trkpt lat="46.88293451" lon="6.74171088"><ele>611.776794</ele><time>2008-04-14T17:35:26Z</time></trkpt>
<trkpt lat="46.88370727" lon="6.74156966"><ele>617.933594</ele><time>2008-04-14T17:35:46Z</time></trkpt>
<trkpt lat="46.88428375" lon="6.74169340"><ele>617.696655</ele><time>2008-04-14T17:36:02Z</time></trkpt>
<trkpt lat="46.88501912" lon="6.74279911"><ele>613.769043</ele><time>2008-04-14T17:36:30Z</time></trkpt>
<trkpt lat="46.88583544" lon="6.74390381"><ele>615.953735</ele><time>2008-04-14T17:37:00Z</time></trkpt>
<trkpt lat="46.88650552" lon="6.74462992"><ele>611.950989</ele><time>2008-04-14T17:37:22Z</time></trkpt>
<trkpt lat="46.88705620" lon="6.74495084"><ele>611.753967</ele><time>2008-04-14T17:37:38Z</time></trkpt>
<trkpt lat="46.88768736" lon="6.74519201"><ele>613.447449</ele><time>2008-04-14T17:37:55Z</time></trkpt>
<trkpt lat="46.88817475" lon="6.74546127"><ele>614.452515</ele><time>2008-04-14T17:38:09Z</time></trkpt>
<trkpt lat="46.88836555" lon="6.74577372"><ele>614.407898</ele><time>2008-04-14T17:38:17Z</time></trkpt>
<trkpt lat="46.88840320" lon="6.74604879"><ele>614.849609</ele><time>2008-04-14T17:38:22Z</time></trkpt>
<trkpt lat="46.88885215" lon="6.74591179"><ele>617.066772</ele><time>2008-04-14T17:38:34Z</time></trkpt>
<trkpt lat="46.88979680" lon="6.74444313"><ele>626.61554</ele><time>2008-04-14T17:39:11Z</time></trkpt>
<trkpt lat="46.89015540" lon="6.74424168"><ele>629.149048</ele><time>2008-04-14T17:39:21Z</time></trkpt>
<trkpt lat="46.89150941" lon="6.74501152"><ele>627.35614</ele><time>2008-04-14T17:40:00Z</time></trkpt>
<trkpt lat="46.89235541" lon="6.74507935"><ele>630.656006</ele><time>2008-04-14T17:40:23Z</time></trkpt>
<trkpt lat="46.89330425" lon="6.74578885"><ele>627.458435</ele><time>2008-04-14T17:40:51Z</time></trkpt>
<trkpt lat="46.89407940" lon="6.74604132"><ele>630.703003</ele><time>2008-04-14T17:41:13Z</time></trkpt>
<trkpt lat="46.89488471" lon="6.74681832"><ele>627.909424</ele><time>2008-04-14T17:41:38Z</time></trkpt>
<trkpt lat="46.89574280" lon="6.74739783"><ele>626.77887</ele><time>2008-04-14T17:42:04Z</time></trkpt>
<trkpt lat="46.89633599" lon="6.74731146"><ele>629.364807</ele><time>2008-04-14T17:42:20Z</time></trkpt>
<trkpt lat="46.89682556" lon="6.74645216"><ele>642.299072</ele><time>2008-04-14T17:42:40Z</time></trkpt>
<trkpt lat="46.89776971" lon="6.74638751"><ele>646.49884</ele><time>2008-04-14T17:43:05Z</time></trkpt>
<trkpt lat="46.89794529" lon="6.74715955"><ele>637.384033</ele><time>2008-04-14T17:43:20Z</time></trkpt>
<trkpt lat="46.89835481" lon="6.74794170"><ele>630.940063</ele><time>2008-04-14T17:43:38Z</time></trkpt>
<trkpt lat="46.89904831" lon="6.74957328"><ele>626.981323</ele><time>2008-04-14T17:44:13Z</time></trkpt>
<trkpt lat="46.89935461" lon="6.74964810"><ele>630.585999</ele><time>2008-04-14T17:44:21Z</time></trkpt>
<trkpt lat="46.89981533" lon="6.74997030"><ele>635.538757</ele><time>2008-04-14T17:44:35Z</time></trkpt>
<trkpt lat="46.90066196" lon="6.75014320"><ele>647.123596</ele><time>2008-04-14T17:44:58Z</time></trkpt>
<trkpt lat="46.90138352" lon="6.75046208"><ele>653.060608</ele><time>2008-04-14T17:45:18Z</time></trkpt>
<trkpt lat="46.90210477" lon="6.75072847"><ele>660.64917</ele><time>2008-04-14T17:45:38Z</time></trkpt>
<trkpt lat="46.90346963" lon="6.75181351"><ele>671.178345</ele><time>2008-04-14T17:46:19Z</time></trkpt>
<trkpt lat="46.90383021" lon="6.75194015"><ele>676.718872</ele><time>2008-04-14T17:46:29Z</time></trkpt>
<trkpt lat="46.90455688" lon="6.75311214"><ele>681.848999</ele><time>2008-04-14T17:46:58Z</time></trkpt>
<trkpt lat="46.90563395" lon="6.75421408"><ele>686.760254</ele><time>2008-04-14T17:47:33Z</time></trkpt>
<trkpt lat="46.90582763" lon="6.75501227"><ele>683.757019</ele><time>2008-04-14T17:47:49Z</time></trkpt>
<trkpt lat="46.90641699" lon="6.75579232"><ele>685.560547</ele><time>2008-04-14T17:48:10Z</time></trkpt>
<trkpt lat="46.90668246" lon="6.75656337"><ele>684.114075</ele><time>2008-04-14T17:48:26Z</time></trkpt>
<trkpt lat="46.90709982" lon="6.75716186"><ele>686.786072</ele><time>2008-04-14T17:48:41Z</time></trkpt>
<trkpt lat="46.90763318" lon="6.75760139"><ele>691.082031</ele><time>2008-04-14T17:48:58Z</time></trkpt>
<trkpt lat="46.90791561" lon="6.75820161"><ele>688.173462</ele><time>2008-04-14T17:49:11Z</time></trkpt>
<trkpt lat="46.90845920" lon="6.75885104"><ele>690.726868</ele><time>2008-04-14T17:49:30Z</time></trkpt>
<trkpt lat="46.90886432" lon="6.76042107"><ele>684.735779</ele><time>2008-04-14T17:50:00Z</time></trkpt>
<trkpt lat="46.90937611" lon="6.76177976"><ele>679.882874</ele><time>2008-04-14T17:50:29Z</time></trkpt>
<trkpt lat="46.90951576" lon="6.76257871"><ele>675.501343</ele><time>2008-04-14T17:50:44Z</time></trkpt>
<trkpt lat="46.90991417" lon="6.76302000"><ele>676.421021</ele><time>2008-04-14T17:50:57Z</time></trkpt>
<trkpt lat="46.90996263" lon="6.76361009"><ele>671.107178</ele><time>2008-04-14T17:51:08Z</time></trkpt>
<trkpt lat="46.91051519" lon="6.76425949"><ele>669.791931</ele><time>2008-04-14T17:51:27Z</time></trkpt>
<trkpt lat="46.91060908" lon="6.76492777"><ele>663.657043</ele><time>2008-04-14T17:51:39Z</time></trkpt>
<trkpt lat="46.90970958" lon="6.76493904"><ele>656.653076</ele><time>2008-04-14T17:52:03Z</time></trkpt>
<trkpt lat="46.90947494" lon="6.76481071"><ele>654.516174</ele><time>2008-04-14T17:52:10Z</time></trkpt>
<trkpt lat="46.90920355" lon="6.76455159"><ele>652.739258</ele><time>2008-04-14T17:52:19Z</time></trkpt>
<trkpt lat="46.90893362" lon="6.76454184"><ele>648.229858</ele><time>2008-04-14T17:52:26Z</time></trkpt>
<trkpt lat="46.90921903" lon="6.76565400"><ele>644.197571</ele><time>2008-04-14T17:52:48Z</time></trkpt>
<trkpt lat="46.90963004" lon="6.76671210"><ele>637.812256</ele><time>2008-04-14T17:53:10Z</time></trkpt>
<trkpt lat="46.90967887" lon="6.76736781"><ele>628.951965</ele><time>2008-04-14T17:53:22Z</time></trkpt>
<trkpt lat="46.91007503" lon="6.76742850"><ele>630.691589</ele><time>2008-04-14T17:53:33Z</time></trkpt>
<trkpt lat="46.91052277" lon="6.76708162"><ele>637.713379</ele><time>2008-04-14T17:53:46Z</time></trkpt>
<trkpt lat="46.91084936" lon="6.76755010"><ele>635.652405</ele><time>2008-04-14T17:53:58Z</time></trkpt>
<trkpt lat="46.91116757" lon="6.76812371"><ele>633.57489</ele><time>2008-04-14T17:54:12Z</time></trkpt>
<trkpt lat="46.91166651" lon="6.76883947"><ele>634.961365</ele><time>2008-04-14T17:54:30Z</time></trkpt>
<trkpt lat="46.91193197" lon="6.76962378"><ele>636.010742</ele><time>2008-04-14T17:54:46Z</time></trkpt>
<trkpt lat="46.91265195" lon="6.76968046"><ele>647.198914</ele><time>2008-04-14T17:55:06Z</time></trkpt>
<trkpt lat="46.91278541" lon="6.76942939"><ele>650.641846</ele><time>2008-04-14T17:55:12Z</time></trkpt>
<trkpt lat="46.91274629" lon="6.76889166"><ele>653.020142</ele><time>2008-04-14T17:55:21Z</time></trkpt>
<trkpt lat="46.91287153" lon="6.76877195"><ele>655.872437</ele><time>2008-04-14T17:55:25Z</time></trkpt>
<trkpt lat="46.91323209" lon="6.76889874"><ele>660.945801</ele><time>2008-04-14T17:55:35Z</time></trkpt>
<trkpt lat="46.91351546" lon="6.76966972"><ele>661.197266</ele><time>2008-04-14T17:55:51Z</time></trkpt>
<trkpt lat="46.91364530" lon="6.77033760"><ele>658.412415</ele><time>2008-04-14T17:56:04Z</time></trkpt>
<trkpt lat="46.91401631" lon="6.77071369"><ele>658.716125</ele><time>2008-04-14T17:56:16Z</time></trkpt>
<trkpt lat="46.91433725" lon="6.77175991"><ele>657.534546</ele><time>2008-04-14T17:56:37Z</time></trkpt>
<trkpt lat="46.91487223" lon="6.77248843"><ele>657.726929</ele><time>2008-04-14T17:56:56Z</time></trkpt>
<trkpt lat="46.91528791" lon="6.77281147"><ele>660.18396</ele><time>2008-04-14T17:57:09Z</time></trkpt>
<trkpt lat="46.91568284" lon="6.77266218"><ele>666.651245</ele><time>2008-04-14T17:57:20Z</time></trkpt>
<trkpt lat="46.91613144" lon="6.77245970"><ele>674.676147</ele><time>2008-04-14T17:57:32Z</time></trkpt>
<trkpt lat="46.91667229" lon="6.77264992"><ele>680.821594</ele><time>2008-04-14T17:57:47Z</time></trkpt>
<trkpt lat="46.91677512" lon="6.77331818"><ele>676.688965</ele><time>2008-04-14T17:58:00Z</time></trkpt>
<trkpt lat="46.91708506" lon="6.77402327"><ele>673.576965</ele><time>2008-04-14T17:58:15Z</time></trkpt>
<trkpt lat="46.91731192" lon="6.77436181"><ele>674.253906</ele><time>2008-04-14T17:58:24Z</time></trkpt>
<trkpt lat="46.91780550" lon="6.77415878"><ele>682.748596</ele><time>2008-04-14T17:58:37Z</time></trkpt>
<trkpt lat="46.91830136" lon="6.77434958"><ele>686.657654</ele><time>2008-04-14T17:58:51Z</time></trkpt>
<trkpt lat="46.91897552" lon="6.77426248"><ele>694.130188</ele><time>2008-04-14T17:59:09Z</time></trkpt>
<trkpt lat="46.91947855" lon="6.77413811"><ele>700.323975</ele><time>2008-04-14T17:59:23Z</time></trkpt>
<trkpt lat="46.92010698" lon="6.77392028"><ele>709.767456</ele><time>2008-04-14T17:59:40Z</time></trkpt>
<trkpt lat="46.92077184" lon="6.77378077"><ele>724.055481</ele><time>2008-04-14T17:59:58Z</time></trkpt>
<trkpt lat="46.92127594" lon="6.77384018"><ele>733.541687</ele><time>2008-04-14T18:00:12Z</time></trkpt>
<trkpt lat="46.92145377" lon="6.77503275"><ele>722.628113</ele><time>2008-04-14T18:00:34Z</time></trkpt>
<trkpt lat="46.92101750" lon="6.77581276"><ele>709.012878</ele><time>2008-04-14T18:00:52Z</time></trkpt>
<trkpt lat="46.92038228" lon="6.77641139"><ele>695.718262</ele><time>2008-04-14T18:01:12Z</time></trkpt>
<trkpt lat="46.91985651" lon="6.77727125"><ele>682.219482</ele><time>2008-04-14T18:01:34Z</time></trkpt>
<trkpt lat="46.91931274" lon="6.77813131"><ele>665.859009</ele><time>2008-04-14T18:01:55Z</time></trkpt>
<trkpt lat="46.91918387" lon="6.77918319"><ele>652.092346</ele><time>2008-04-14T18:02:14Z</time></trkpt>
<trkpt lat="46.91968131" lon="6.77964973"><ele>654.925049</ele><time>2008-04-14T18:02:30Z</time></trkpt>
<trkpt lat="46.91960564" lon="6.78056967"><ele>644.650085</ele><time>2008-04-14T18:02:47Z</time></trkpt>
<trkpt lat="46.91991448" lon="6.78109105"><ele>646.668579</ele><time>2008-04-14T18:03:00Z</time></trkpt>
<trkpt lat="46.92014199" lon="6.78154778"><ele>647.216858</ele><time>2008-04-14T18:03:10Z</time></trkpt>
<trkpt lat="46.92059317" lon="6.78179172"><ele>651.282227</ele><time>2008-04-14T18:03:23Z</time></trkpt>
<trkpt lat="46.92092000" lon="6.78231290"><ele>647.703308</ele><time>2008-04-14T18:03:36Z</time></trkpt>
<trkpt lat="46.92154147" lon="6.78244973"><ele>656.591003</ele><time>2008-04-14T18:03:53Z</time></trkpt>
<trkpt lat="46.92195780" lon="6.78289105"><ele>659.322327</ele><time>2008-04-14T18:04:06Z</time></trkpt>
<trkpt lat="46.92226370" lon="6.78290045"><ele>664.557983</ele><time>2008-04-14T18:04:14Z</time></trkpt>
<trkpt lat="46.92276591" lon="6.78263173"><ele>675.406433</ele><time>2008-04-14T18:04:29Z</time></trkpt>
<trkpt lat="46.92312721" lon="6.78288992"><ele>677.82074</ele><time>2008-04-14T18:04:39Z</time></trkpt>
<trkpt lat="46.92343342" lon="6.78295183"><ele>681.386292</ele><time>2008-04-14T18:04:48Z</time></trkpt>
<trkpt lat="46.92335622" lon="6.78360926"><ele>675.93457</ele><time>2008-04-14T18:05:00Z</time></trkpt>
<trkpt lat="46.92349714" lon="6.78465793"><ele>676.038452</ele><time>2008-04-14T18:05:19Z</time></trkpt>
<trkpt lat="46.92394239" lon="6.78544031"><ele>673.684021</ele><time>2008-04-14T18:05:38Z</time></trkpt>
<trkpt lat="46.92422460" lon="6.78602773"><ele>671.398254</ele><time>2008-04-14T18:05:51Z</time></trkpt>
<trkpt lat="46.92431896" lon="6.78680125"><ele>667.336548</ele><time>2008-04-14T18:06:05Z</time></trkpt>
<trkpt lat="46.92476240" lon="6.78726856"><ele>665.391724</ele><time>2008-04-14T18:06:20Z</time></trkpt>
<trkpt lat="46.92504639" lon="6.78817110"><ele>660.713928</ele><time>2008-04-14T18:06:38Z</time></trkpt>
<trkpt lat="46.92540991" lon="6.78882321"><ele>659.206543</ele><time>2008-04-14T18:06:54Z</time></trkpt>
<trkpt lat="46.92558535" lon="6.78962204"><ele>655.091797</ele><time>2008-04-14T18:07:09Z</time></trkpt>
<trkpt lat="46.92563434" lon="6.79033049"><ele>651.169861</ele><time>2008-04-14T18:07:22Z</time></trkpt>
<trkpt lat="46.92582621" lon="6.79085339"><ele>650.721985</ele><time>2008-04-14T18:07:33Z</time></trkpt>
<trkpt lat="46.92627223" lon="6.79178027"><ele>648.286682</ele><time>2008-04-14T18:07:53Z</time></trkpt>
<trkpt lat="46.92691672" lon="6.79280984"><ele>646.889038</ele><time>2008-04-14T18:08:19Z</time></trkpt>
<trkpt lat="46.92745304" lon="6.79380133"><ele>639.017639</ele><time>2008-04-14T18:08:42Z</time></trkpt>
<trkpt lat="46.92791806" lon="6.79491188"><ele>630.295654</ele><time>2008-04-14T18:09:06Z</time></trkpt>
<trkpt lat="46.92823576" lon="6.79542018"><ele>628.724487</ele><time>2008-04-14T18:09:18Z</time></trkpt>
<trkpt lat="46.92863382" lon="6.79582248"><ele>630.677795</ele><time>2008-04-14T18:09:31Z</time></trkpt>
<trkpt lat="46.92905568" lon="6.79726186"><ele>629.17157</ele><time>2008-04-14T18:10:00Z</time></trkpt>
<trkpt lat="46.92977741" lon="6.79763406"><ele>631.558655</ele><time>2008-04-14T18:10:20Z</time></trkpt>
<trkpt lat="46.93053335" lon="6.79769070"><ele>638.502197</ele><time>2008-04-14T18:10:40Z</time></trkpt>
<trkpt lat="46.93116483" lon="6.79801146"><ele>643.277954</ele><time>2008-04-14T18:10:58Z</time></trkpt>
<trkpt lat="46.93189672" lon="6.79859367"><ele>649.871643</ele><time>2008-04-14T18:11:21Z</time></trkpt>
<trkpt lat="46.93261896" lon="6.79905783"><ele>654.932251</ele><time>2008-04-14T18:11:42Z</time></trkpt>
<trkpt lat="46.93320575" lon="6.79943168"><ele>659.897827</ele><time>2008-04-14T18:11:59Z</time></trkpt>
<trkpt lat="46.93320334" lon="6.80061360"><ele>650.304138</ele><time>2008-04-14T18:12:20Z</time></trkpt>
<trkpt lat="46.93393705" lon="6.80152415"><ele>646.220032</ele><time>2008-04-14T18:12:46Z</time></trkpt>
<trkpt lat="46.93474168" lon="6.80225004"><ele>645.914673</ele><time>2008-04-14T18:13:11Z</time></trkpt>
<trkpt lat="46.93546383" lon="6.80270113"><ele>642.195374</ele><time>2008-04-14T18:13:32Z</time></trkpt>
<trkpt lat="46.93627447" lon="6.80288853"><ele>636.44342</ele><time>2008-04-14T18:13:54Z</time></trkpt>
<trkpt lat="46.93668677" lon="6.80262100"><ele>641.505554</ele><time>2008-04-14T18:14:06Z</time></trkpt>
<trkpt lat="46.93717858" lon="6.80208985"><ele>649.072815</ele><time>2008-04-14T18:14:22Z</time></trkpt>
<trkpt lat="46.93753874" lon="6.80215126"><ele>647.889832</ele><time>2008-04-14T18:14:32Z</time></trkpt>
<trkpt lat="46.93767767" lon="6.80287194"><ele>640.704285</ele><time>2008-04-14T18:14:46Z</time></trkpt>
<trkpt lat="46.93789428" lon="6.80300071"><ele>643.043396</ele><time>2008-04-14T18:14:52Z</time></trkpt>
<trkpt lat="46.93830153" lon="6.80344243"><ele>644.296509</ele><time>2008-04-14T18:15:06Z</time></trkpt>
<trkpt lat="46.93898485" lon="6.80338182"><ele>649.287354</ele><time>2008-04-14T18:15:24Z</time></trkpt>
<trkpt lat="46.93956191" lon="6.80362454"><ele>647.079224</ele><time>2008-04-14T18:15:40Z</time></trkpt>
<trkpt lat="46.93993470" lon="6.80434249"><ele>636.921814</ele><time>2008-04-14T18:15:56Z</time></trkpt>
<trkpt lat="46.94051263" lon="6.80474282"><ele>629.92218</ele><time>2008-04-14T18:16:13Z</time></trkpt>
<trkpt lat="46.94123469" lon="6.80518087"><ele>633.920776</ele><time>2008-04-14T18:16:34Z</time></trkpt>
<trkpt lat="46.94124739" lon="6.80585056"><ele>625.770264</ele><time>2008-04-14T18:16:47Z</time></trkpt>
<trkpt lat="46.94115098" lon="6.80631138"><ele>619.309875</ele><time>2008-04-14T18:16:55Z</time></trkpt>
<trkpt lat="46.94152586" lon="6.80741024"><ele>610.126404</ele><time>2008-04-14T18:17:18Z</time></trkpt>
<trkpt lat="46.94219517" lon="6.80807223"><ele>602.925171</ele><time>2008-04-14T18:17:39Z</time></trkpt>
<trkpt lat="46.94269235" lon="6.80851297"><ele>595.50354</ele><time>2008-04-14T18:17:55Z</time></trkpt>
<trkpt lat="46.94337820" lon="6.80891210"><ele>590.260193</ele><time>2008-04-14T18:18:15Z</time></trkpt>
<trkpt lat="46.94387833" lon="6.80989135"><ele>574.661865</ele><time>2008-04-14T18:18:37Z</time></trkpt>
<trkpt lat="46.94423158" lon="6.81033380"><ele>568.839417</ele><time>2008-04-14T18:18:49Z</time></trkpt>
<trkpt lat="46.94459210" lon="6.81046094"><ele>567.037537</ele><time>2008-04-14T18:18:59Z</time></trkpt>
<trkpt lat="46.94473717" lon="6.81066940"><ele>563.692017</ele><time>2008-04-14T18:19:05Z</time></trkpt>
<trkpt lat="46.94536537" lon="6.81039936"><ele>571.341675</ele><time>2008-04-14T18:19:22Z</time></trkpt>
<trkpt lat="46.94585685" lon="6.80980253"><ele>583.963135</ele><time>2008-04-14T18:19:39Z</time></trkpt>
<trkpt lat="46.94643245" lon="6.80978266"><ele>587.192993</ele><time>2008-04-14T18:19:55Z</time></trkpt>
<trkpt lat="46.94670949" lon="6.80945103"><ele>593.614075</ele><time>2008-04-14T18:20:04Z</time></trkpt>
<trkpt lat="46.94701215" lon="6.80886953"><ele>604.386414</ele><time>2008-04-14T18:20:17Z</time></trkpt>
<trkpt lat="46.94768496" lon="6.80853325"><ele>609.954346</ele><time>2008-04-14T18:20:36Z</time></trkpt>
<trkpt lat="46.94804252" lon="6.80812185"><ele>615.252747</ele><time>2008-04-14T18:20:49Z</time></trkpt>
<trkpt lat="46.94822895" lon="6.80767305"><ele>624.425964</ele><time>2008-04-14T18:20:58Z</time></trkpt>
<trkpt lat="46.94876829" lon="6.80760103"><ele>619.61261</ele><time>2008-04-14T18:21:13Z</time></trkpt>
<trkpt lat="46.94889096" lon="6.80700847"><ele>629.328186</ele><time>2008-04-14T18:21:24Z</time></trkpt>
<trkpt lat="46.94880638" lon="6.80635267"><ele>642.030029</ele><time>2008-04-14T18:21:36Z</time></trkpt>
<trkpt lat="46.94911185" lon="6.80628340"><ele>638.743408</ele><time>2008-04-14T18:21:44Z</time></trkpt>
<trkpt lat="46.94943458" lon="6.80608256"><ele>640.886719</ele><time>2008-04-14T18:21:54Z</time></trkpt>
<trkpt lat="46.94960251" lon="6.80554200"><ele>648.623901</ele><time>2008-04-14T18:22:05Z</time></trkpt>
<trkpt lat="46.94987954" lon="6.80521033"><ele>651.521423</ele><time>2008-04-14T18:22:14Z</time></trkpt>
<trkpt lat="46.94987743" lon="6.80482941"><ele>657.094238</ele><time>2008-04-14T18:22:21Z</time></trkpt>
<trkpt lat="46.95037723" lon="6.80574306"><ele>648.44928</ele><time>2008-04-14T18:22:42Z</time></trkpt>
<trkpt lat="46.95055212" lon="6.80646350"><ele>642.731079</ele><time>2008-04-14T18:22:56Z</time></trkpt>
<trkpt lat="46.95029489" lon="6.80712334"><ele>630.412048</ele><time>2008-04-14T18:23:10Z</time></trkpt>
<trkpt lat="46.95034493" lon="6.80804229"><ele>619.498596</ele><time>2008-04-14T18:23:27Z</time></trkpt>
<trkpt lat="46.95101445" lon="6.80874380"><ele>614.309753</ele><time>2008-04-14T18:23:49Z</time></trkpt>
<trkpt lat="46.95165670" lon="6.80939311"><ele>604.735962</ele><time>2008-04-14T18:24:10Z</time></trkpt>
<trkpt lat="46.95120415" lon="6.81052815"><ele>588.615967</ele><time>2008-04-14T18:24:34Z</time></trkpt>
<trkpt lat="46.95062337" lon="6.81124430"><ele>577.561523</ele><time>2008-04-14T18:24:54Z</time></trkpt>
<trkpt lat="46.95004841" lon="6.81138238"><ele>576.070313</ele><time>2008-04-14T18:25:10Z</time></trkpt>
<trkpt lat="46.94964472" lon="6.81158413"><ele>572.612366</ele><time>2008-04-14T18:25:21Z</time></trkpt>
<trkpt lat="46.94936372" lon="6.81119333"><ele>575.821472</ele><time>2008-04-14T18:25:31Z</time></trkpt>
<trkpt lat="46.94896730" lon="6.81107973"><ele>575.523438</ele><time>2008-04-14T18:25:42Z</time></trkpt>
<trkpt lat="46.94838478" lon="6.81148061"><ele>569.713928</ele><time>2008-04-14T18:25:59Z</time></trkpt>
<trkpt lat="46.94784430" lon="6.81134242"><ele>568.604614</ele><time>2008-04-14T18:26:14Z</time></trkpt>
<trkpt lat="46.94761302" lon="6.81181800"><ele>562.618713</ele><time>2008-04-14T18:26:25Z</time></trkpt>
<trkpt lat="46.94703222" lon="6.81253410"><ele>550.965698</ele><time>2008-04-14T18:26:45Z</time></trkpt>
<trkpt lat="46.94645906" lon="6.81300051"><ele>543.547852</ele><time>2008-04-14T18:27:03Z</time></trkpt>
<trkpt lat="46.94582300" lon="6.81348078"><ele>535.230225</ele><time>2008-04-14T18:27:22Z</time></trkpt>
<trkpt lat="46.94519407" lon="6.81361945"><ele>530.791077</ele><time>2008-04-14T18:27:39Z</time></trkpt>
<trkpt lat="46.94452296" lon="6.81427086"><ele>525.372192</ele><time>2008-04-14T18:28:00Z</time></trkpt>
<trkpt lat="46.94398434" lon="6.81447414"><ele>522.544006</ele><time>2008-04-14T18:28:15Z</time></trkpt>
<trkpt lat="46.94344436" lon="6.81442787"><ele>522.30426</ele><time>2008-04-14T18:28:29Z</time></trkpt>
<trkpt lat="46.94331444" lon="6.81534880"><ele>512.953003</ele><time>2008-04-14T18:28:47Z</time></trkpt>
<trkpt lat="46.94314381" lon="6.81705827"><ele>502.362793</ele><time>2008-04-14T18:29:18Z</time></trkpt>
<trkpt lat="46.94297316" lon="6.81876773"><ele>496.750549</ele><time>2008-04-14T18:29:50Z</time></trkpt>
<trkpt lat="46.94180162" lon="6.81837408"><ele>496.031097</ele><time>2008-04-14T18:30:22Z</time></trkpt>
<trkpt lat="46.94068454" lon="6.81807176"><ele>494.707062</ele><time>2008-04-14T18:30:52Z</time></trkpt>
<trkpt lat="46.93941163" lon="6.81723277"><ele>495.924164</ele><time>2008-04-14T18:31:29Z</time></trkpt>
<trkpt lat="46.93824729" lon="6.81651076"><ele>494.354767</ele><time>2008-04-14T18:32:03Z</time></trkpt>
<trkpt lat="46.93711943" lon="6.81588029"><ele>494.830963</ele><time>2008-04-14T18:32:35Z</time></trkpt>
<trkpt lat="46.93603639" lon="6.81522307"><ele>495.881287</ele><time>2008-04-14T18:33:07Z</time></trkpt>
<trkpt lat="46.93508842" lon="6.81459056"><ele>495.792267</ele><time>2008-04-14T18:33:35Z</time></trkpt>
<trkpt lat="46.93449296" lon="6.81426916"><ele>494.805664</ele><time>2008-04-14T18:33:52Z</time></trkpt>
<trkpt lat="46.93427522" lon="6.81393025"><ele>496.339752</ele><time>2008-04-14T18:34:00Z</time></trkpt>
<trkpt lat="46.93323479" lon="6.81283924"><ele>498.852112</ele><time>2008-04-14T18:34:34Z</time></trkpt>
<trkpt lat="46.93246871" lon="6.81257239"><ele>493.749908</ele><time>2008-04-14T18:34:55Z</time></trkpt>
<trkpt lat="46.93187325" lon="6.81225103"><ele>493.157013</ele><time>2008-04-14T18:35:12Z</time></trkpt>
<trkpt lat="46.93111516" lon="6.81180026"><ele>493.018433</ele><time>2008-04-14T18:35:34Z</time></trkpt>
<trkpt lat="46.93038477" lon="6.81148049"><ele>493.006714</ele><time>2008-04-14T18:35:54Z</time></trkpt>
<trkpt lat="46.92935611" lon="6.81090158"><ele>494.070404</ele><time>2008-04-14T18:36:24Z</time></trkpt>
<trkpt lat="46.92831817" lon="6.81027029"><ele>494.919006</ele><time>2008-04-14T18:36:54Z</time></trkpt>
<trkpt lat="46.92759562" lon="6.80974037"><ele>492.391357</ele><time>2008-04-14T18:37:16Z</time></trkpt>
<trkpt lat="46.92713370" lon="6.80916803"><ele>496.022797</ele><time>2008-04-14T18:37:32Z</time></trkpt>
<trkpt lat="46.92682463" lon="6.80858077"><ele>501.542694</ele><time>2008-04-14T18:37:45Z</time></trkpt>
<trkpt lat="46.92618884" lon="6.80747214"><ele>507.306366</ele><time>2008-04-14T18:38:12Z</time></trkpt>
<trkpt lat="46.92586097" lon="6.80674069"><ele>513.31366</ele><time>2008-04-14T18:38:28Z</time></trkpt>
<trkpt lat="46.92527238" lon="6.80603857"><ele>513.88623</ele><time>2008-04-14T18:38:48Z</time></trkpt>
<trkpt lat="46.92509705" lon="6.80523970"><ele>522.713013</ele><time>2008-04-14T18:39:03Z</time></trkpt>
<trkpt lat="46.92482575" lon="6.80498029"><ele>525.957336</ele><time>2008-04-14T18:39:12Z</time></trkpt>
<trkpt lat="46.92423890" lon="6.80459331"><ele>532.831787</ele><time>2008-04-14T18:39:29Z</time></trkpt>
<trkpt lat="46.92373308" lon="6.80421851"><ele>536.954712</ele><time>2008-04-14T18:39:44Z</time></trkpt>
<trkpt lat="46.92319837" lon="6.80350269"><ele>539.959351</ele><time>2008-04-14T18:40:04Z</time></trkpt>
<trkpt lat="46.92260099" lon="6.80284013"><ele>543.672241</ele><time>2008-04-14T18:40:24Z</time></trkpt>
<trkpt lat="46.92174181" lon="6.80201002"><ele>543.425171</ele><time>2008-04-14T18:40:51Z</time></trkpt>
<trkpt lat="46.92097242" lon="6.80115260"><ele>542.831421</ele><time>2008-04-14T18:41:17Z</time></trkpt>
<trkpt lat="46.92038233" lon="6.80018805"><ele>541.634644</ele><time>2008-04-14T18:41:41Z</time></trkpt>
<trkpt lat="46.91979173" lon="6.79913163"><ele>540.428955</ele><time>2008-04-14T18:42:05Z</time></trkpt>
<trkpt lat="46.91907460" lon="6.79797170"><ele>540.054565</ele><time>2008-04-14T18:42:34Z</time></trkpt>
<trkpt lat="46.91866645" lon="6.79737265"><ele>538.996094</ele><time>2008-04-14T18:42:49Z</time></trkpt>
<trkpt lat="46.91798712" lon="6.79654053"><ele>539.700439</ele><time>2008-04-14T18:43:13Z</time></trkpt>
<trkpt lat="46.91725441" lon="6.79581410"><ele>543.705261</ele><time>2008-04-14T18:43:37Z</time></trkpt>
<trkpt lat="46.91662970" lon="6.79509952"><ele>542.991394</ele><time>2008-04-14T18:43:58Z</time></trkpt>
<trkpt lat="46.91608676" lon="6.79452839"><ele>543.129944</ele><time>2008-04-14T18:44:16Z</time></trkpt>
<trkpt lat="46.91504783" lon="6.79374004"><ele>540.312256</ele><time>2008-04-14T18:44:47Z</time></trkpt>
<trkpt lat="46.91427779" lon="6.79277784"><ele>543.955322</ele><time>2008-04-14T18:45:14Z</time></trkpt>
<trkpt lat="46.91345221" lon="6.79154066"><ele>544.935059</ele><time>2008-04-14T18:45:46Z</time></trkpt>
<trkpt lat="46.91300656" lon="6.79067963"><ele>542.485168</ele><time>2008-04-14T18:46:05Z</time></trkpt>
<trkpt lat="46.91281402" lon="6.79003871"><ele>537.875488</ele><time>2008-04-14T18:46:18Z</time></trkpt>
<trkpt lat="46.91227916" lon="6.78931005"><ele>532.271362</ele><time>2008-04-14T18:46:38Z</time></trkpt>
<trkpt lat="46.91163202" lon="6.78782140"><ele>528.656128</ele><time>2008-04-14T18:47:10Z</time></trkpt>
<trkpt lat="46.91244862" lon="6.78747021"><ele>536.239441</ele><time>2008-04-14T18:47:33Z</time></trkpt>
<trkpt lat="46.91325600" lon="6.78707975"><ele>538.967712</ele><time>2008-04-14T18:47:55Z</time></trkpt>
<trkpt lat="46.91342384" lon="6.78653949"><ele>538.996033</ele><time>2008-04-14T18:48:06Z</time></trkpt>
<trkpt lat="46.91319531" lon="6.78589903"><ele>542.606934</ele><time>2008-04-14T18:48:19Z</time></trkpt>
<trkpt lat="46.91270614" lon="6.78530111"><ele>545.826782</ele><time>2008-04-14T18:48:36Z</time></trkpt>
<trkpt lat="46.91179165" lon="6.78426207"><ele>547.752747</ele><time>2008-04-14T18:49:07Z</time></trkpt>
<trkpt lat="46.91138125" lon="6.78328255"><ele>546.545471</ele><time>2008-04-14T18:49:28Z</time></trkpt>
<trkpt lat="46.91093569" lon="6.78244787"><ele>548.010193</ele><time>2008-04-14T18:49:48Z</time></trkpt>
<trkpt lat="46.91061484" lon="6.78140165"><ele>550.007813</ele><time>2008-04-14T18:50:09Z</time></trkpt>
<trkpt lat="46.91033934" lon="6.78042053"><ele>551.750671</ele><time>2008-04-14T18:50:28Z</time></trkpt>
<trkpt lat="46.90987494" lon="6.77944173"><ele>551.568848</ele><time>2008-04-14T18:50:50Z</time></trkpt>
<trkpt lat="46.90946298" lon="6.77819977"><ele>554.226074</ele><time>2008-04-14T18:51:15Z</time></trkpt>
<trkpt lat="46.90928935" lon="6.77772935"><ele>552.37616</ele><time>2008-04-14T18:51:25Z</time></trkpt>
<trkpt lat="46.90874738" lon="6.77734223"><ele>548.140076</ele><time>2008-04-14T18:51:41Z</time></trkpt>
<trkpt lat="46.90829506" lon="6.77690150"><ele>545.957886</ele><time>2008-04-14T18:51:55Z</time></trkpt>
<trkpt lat="46.90797720" lon="6.77638037"><ele>546.764587</ele><time>2008-04-14T18:52:08Z</time></trkpt>
<trkpt lat="46.90778367" lon="6.77558207"><ele>549.134583</ele><time>2008-04-14T18:52:23Z</time></trkpt>
<trkpt lat="46.90773185" lon="6.77440138"><ele>555.174133</ele><time>2008-04-14T18:52:45Z</time></trkpt>
<trkpt lat="46.90746208" lon="6.77441783"><ele>552.44751</ele><time>2008-04-14T18:52:52Z</time></trkpt>
<trkpt lat="46.90710449" lon="6.77480290"><ele>549.708008</ele><time>2008-04-14T18:53:04Z</time></trkpt>
<trkpt lat="46.90679950" lon="6.77495105"><ele>548.453125</ele><time>2008-04-14T18:53:13Z</time></trkpt>
<trkpt lat="46.90643223" lon="6.77521809"><ele>546.163208</ele><time>2008-04-14T18:53:24Z</time></trkpt>
<trkpt lat="46.90594161" lon="6.77593292"><ele>542.239197</ele><time>2008-04-14T18:53:42Z</time></trkpt>
<trkpt lat="46.90554856" lon="6.77641028"><ele>537.732666</ele><time>2008-04-14T18:53:56Z</time></trkpt>
<trkpt lat="46.90518205" lon="6.77680855"><ele>530.546997</ele><time>2008-04-14T18:54:08Z</time></trkpt>
<trkpt lat="46.90474614" lon="6.77765393"><ele>519.132202</ele><time>2008-04-14T18:54:27Z</time></trkpt>
<trkpt lat="46.90420207" lon="6.77846124"><ele>510.235931</ele><time>2008-04-14T18:54:48Z</time></trkpt>
<trkpt lat="46.90394719" lon="6.77950125"><ele>499.52536</ele><time>2008-04-14T18:55:08Z</time></trkpt>
<trkpt lat="46.90314489" lon="6.78077107"><ele>488.549622</ele><time>2008-04-14T18:55:40Z</time></trkpt>
<trkpt lat="46.90273665" lon="6.78017232"><ele>486.006287</ele><time>2008-04-14T18:55:55Z</time></trkpt>
<trkpt lat="46.90223225" lon="6.78006037"><ele>482.158081</ele><time>2008-04-14T18:56:09Z</time></trkpt>
<trkpt lat="46.90169285" lon="6.78011948"><ele>478.041687</ele><time>2008-04-14T18:56:23Z</time></trkpt>
<trkpt lat="46.90092375" lon="6.77934144"><ele>479.498077</ele><time>2008-04-14T18:56:48Z</time></trkpt>
<trkpt lat="46.90025518" lon="6.77883779"><ele>474.724762</ele><time>2008-04-14T18:57:08Z</time></trkpt>
<trkpt lat="46.89939801" lon="6.77838897"><ele>473.442261</ele><time>2008-04-14T18:57:33Z</time></trkpt>
<trkpt lat="46.89889202" lon="6.77800146"><ele>473.430237</ele><time>2008-04-14T18:57:48Z</time></trkpt>
<trkpt lat="46.89844672" lon="6.77721951"><ele>475.606018</ele><time>2008-04-14T18:58:07Z</time></trkpt>
<trkpt lat="46.89798373" lon="6.77649028"><ele>478.174896</ele><time>2008-04-14T18:58:25Z</time></trkpt>
<trkpt lat="46.89753140" lon="6.77604965"><ele>478.087341</ele><time>2008-04-14T18:58:39Z</time></trkpt>
<trkpt lat="46.89676371" lon="6.77552106"><ele>471.248505</ele><time>2008-04-14T18:59:02Z</time></trkpt>
<trkpt lat="46.89590471" lon="6.77475738"><ele>469.668854</ele><time>2008-04-14T18:59:29Z</time></trkpt>
<trkpt lat="46.89559500" lon="6.77409193"><ele>470.96286</ele><time>2008-04-14T18:59:43Z</time></trkpt>
<trkpt lat="46.89522209" lon="6.77338790"><ele>472.582367</ele><time>2008-04-14T19:00:00Z</time></trkpt>
<trkpt lat="46.89482478" lon="6.77313036"><ele>468.999084</ele><time>2008-04-14T19:00:11Z</time></trkpt>
<trkpt lat="46.89418225" lon="6.77246905"><ele>474.256226</ele><time>2008-04-14T19:00:32Z</time></trkpt>
<trkpt lat="46.89382885" lon="6.77202726"><ele>473.431976</ele><time>2008-04-14T19:00:45Z</time></trkpt>
<trkpt lat="46.89341911" lon="6.77117938"><ele>479.220734</ele><time>2008-04-14T19:01:04Z</time></trkpt>
<trkpt lat="46.89291933" lon="6.77031951"><ele>480.356995</ele><time>2008-04-14T19:01:24Z</time></trkpt>
<trkpt lat="46.89246575" lon="6.76966903"><ele>479.618286</ele><time>2008-04-14T19:01:41Z</time></trkpt>
<trkpt lat="46.89209274" lon="6.76895195"><ele>480.066803</ele><time>2008-04-14T19:01:58Z</time></trkpt>
<trkpt lat="46.89164892" lon="6.76843259"><ele>475.898285</ele><time>2008-04-14T19:02:13Z</time></trkpt>
<trkpt lat="46.89141797" lon="6.76739883"><ele>476.56134</ele><time>2008-04-14T19:02:33Z</time></trkpt>
<trkpt lat="46.89095461" lon="6.76661730"><ele>479.353668</ele><time>2008-04-14T19:02:52Z</time></trkpt>
<trkpt lat="46.89042005" lon="6.76596789"><ele>482.845978</ele><time>2008-04-14T19:03:10Z</time></trkpt>
<trkpt lat="46.88982361" lon="6.76550297"><ele>479.879974</ele><time>2008-04-14T19:03:28Z</time></trkpt>
<trkpt lat="46.88915574" lon="6.76513081"><ele>478.849548</ele><time>2008-04-14T19:03:47Z</time></trkpt>
<trkpt lat="46.88869430" lon="6.76467734"><ele>481.784241</ele><time>2008-04-14T19:04:02Z</time></trkpt>
<trkpt lat="46.88847494" lon="6.76408963"><ele>487.034851</ele><time>2008-04-14T19:04:14Z</time></trkpt>
<trkpt lat="46.88738299" lon="6.76349975"><ele>484.307159</ele><time>2008-04-14T19:04:45Z</time></trkpt>
<trkpt lat="46.88684888" lon="6.76292914"><ele>486.084717</ele><time>2008-04-14T19:05:03Z</time></trkpt>
<trkpt lat="46.88625956" lon="6.76214929"><ele>488.892731</ele><time>2008-04-14T19:05:24Z</time></trkpt>
<trkpt lat="46.88580749" lon="6.76176136"><ele>488.608551</ele><time>2008-04-14T19:05:38Z</time></trkpt>
<trkpt lat="46.88526733" lon="6.76168943"><ele>484.256042</ele><time>2008-04-14T19:05:53Z</time></trkpt>
<trkpt lat="46.88463504" lon="6.76125129"><ele>484.137085</ele><time>2008-04-14T19:06:12Z</time></trkpt>
<trkpt lat="46.88417544" lon="6.76111276"><ele>482.378326</ele><time>2008-04-14T19:06:24Z</time></trkpt>
<trkpt lat="46.88368824" lon="6.76086961"><ele>484.247955</ele><time>2008-04-14T19:06:38Z</time></trkpt>
<trkpt lat="46.88296670" lon="6.76055070"><ele>484.371948</ele><time>2008-04-14T19:06:58Z</time></trkpt>
<trkpt lat="46.88250555" lon="6.76014980"><ele>486.231445</ele><time>2008-04-14T19:07:12Z</time></trkpt>
<trkpt lat="46.88205269" lon="6.75963072"><ele>484.819458</ele><time>2008-04-14T19:07:28Z</time></trkpt>
<trkpt lat="46.88133239" lon="6.75952173"><ele>477.520721</ele><time>2008-04-14T19:07:47Z</time></trkpt>
<trkpt lat="46.88071018" lon="6.75926720"><ele>471.135834</ele><time>2008-04-14T19:08:04Z</time></trkpt>
<trkpt lat="46.88016892" lon="6.75901165"><ele>464.3638</ele><time>2008-04-14T19:08:20Z</time></trkpt>
<trkpt lat="46.87961555" lon="6.75823149"><ele>458.047272</ele><time>2008-04-14T19:08:40Z</time></trkpt>
<trkpt lat="46.87925334" lon="6.75782938"><ele>451.436615</ele><time>2008-04-14T19:08:52Z</time></trkpt>
<trkpt lat="46.87876605" lon="6.75757317"><ele>445.869751</ele><time>2008-04-14T19:09:06Z</time></trkpt>
<trkpt lat="46.87830457" lon="6.75711985"><ele>445.927338</ele><time>2008-04-14T19:09:21Z</time></trkpt>
<trkpt lat="46.87781970" lon="6.75727030"><ele>443.306824</ele><time>2008-04-14T19:09:34Z</time></trkpt>
<trkpt lat="46.87740429" lon="6.75700007"><ele>447.355682</ele><time>2008-04-14T19:09:46Z</time></trkpt>
<trkpt lat="46.87726155" lon="6.75719865"><ele>442.890076</ele><time>2008-04-14T19:09:52Z</time></trkpt>
</trkseg></trk></gpx>